JAL403 RJAA-EGLL
Flight info
| Callsign | JAL403 |
|---|---|
| Flight time | N/A |
| Altitude | 33000 |
| Route | GULBO Y808 PUTER A590 POWAL DCT OPAKE DCT NATES R338 MARCC DCT JUJXI DCT OMEKA DCT 81N120W 82N100W 82N080W 82N060W/M083F330 80N040W 74N020W 66N010W DCT NALAN/N0477F330 DCT ELBUS DCT AKOMU DCT VAMEB DCT NUGRA |
| Aircraft | B77W/H-SDE1E2E3FGHIJ2J3J4J5M1RWXY/LB1D1 |
Departure
| Time | 2026-05-04 13:41 |
|---|---|
| Airport | Narita International Airport (RJAA) |
Arrival
| Time | N/A |
|---|---|
| Airport | London Heathrow Airport (EGLL) |
| Time | Latitude | Longitude | Altitude | Speed | Heading |
|---|---|---|---|---|---|
| 2026-05-04 13:10 | 35.77134 | 140.39148 | 146 ft | 0 kts | 239° |
| 2026-05-04 13:21 | 35.77135 | 140.39151 | 146 ft | 2 kts | 239° |
| 2026-05-04 13:21 | 35.77143 | 140.39166 | 146 ft | 2 kts | 239° |
| 2026-05-04 13:22 | 35.77148 | 140.39177 | 146 ft | 2 kts | 237° |
| 2026-05-04 13:22 | 35.77158 | 140.39191 | 146 ft | 2 kts | 218° |
| 2026-05-04 13:22 | 35.77170 | 140.39201 | 146 ft | 2 kts | 201° |
| 2026-05-04 13:22 | 35.77185 | 140.39206 | 146 ft | 2 kts | 186° |
| 2026-05-04 13:23 | 35.77200 | 140.39206 | 146 ft | 2 kts | 170° |
| 2026-05-04 13:23 | 35.77214 | 140.39201 | 146 ft | 2 kts | 154° |
| 2026-05-04 13:23 | 35.77221 | 140.39197 | 146 ft | 1 kts | 148° |
| 2026-05-04 13:23 | 35.77222 | 140.39197 | 146 ft | 0 kts | 148° |
| 2026-05-04 13:28 | 35.77206 | 140.39208 | 146 ft | 6 kts | 148° |
| 2026-05-04 13:28 | 35.77151 | 140.39249 | 146 ft | 11 kts | 150° |
| 2026-05-04 13:28 | 35.77089 | 140.39293 | 146 ft | 9 kts | 150° |
| 2026-05-04 13:29 | 35.77036 | 140.39329 | 146 ft | 7 kts | 150° |
| 2026-05-04 13:29 | 35.76991 | 140.39362 | 146 ft | 8 kts | 150° |
| 2026-05-04 13:29 | 35.76942 | 140.39406 | 146 ft | 7 kts | 111° |
| 2026-05-04 13:29 | 35.76954 | 140.39476 | 146 ft | 10 kts | 63° |
| 2026-05-04 13:30 | 35.76991 | 140.39555 | 146 ft | 10 kts | 60° |
| 2026-05-04 13:30 | 35.77017 | 140.39636 | 146 ft | 9 kts | 92° |
| 2026-05-04 13:30 | 35.76996 | 140.39710 | 146 ft | 10 kts | 114° |
| 2026-05-04 13:30 | 35.76961 | 140.39804 | 146 ft | 11 kts | 114° |
| 2026-05-04 13:31 | 35.76924 | 140.39883 | 146 ft | 9 kts | 143° |
| 2026-05-04 13:31 | 35.76864 | 140.39891 | 146 ft | 8 kts | 182° |
| 2026-05-04 13:31 | 35.76801 | 140.39888 | 146 ft | 10 kts | 182° |
| 2026-05-04 13:31 | 35.76725 | 140.39851 | 146 ft | 13 kts | 217° |
| 2026-05-04 13:32 | 35.76654 | 140.39775 | 146 ft | 13 kts | 221° |
| 2026-05-04 13:32 | 35.76582 | 140.39725 | 146 ft | 11 kts | 204° |
| 2026-05-04 13:32 | 35.76516 | 140.39688 | 146 ft | 9 kts | 204° |
| 2026-05-04 13:32 | 35.76461 | 140.39658 | 146 ft | 8 kts | 204° |
| 2026-05-04 13:33 | 35.76403 | 140.39625 | 146 ft | 11 kts | 204° |
| 2026-05-04 13:33 | 35.76311 | 140.39575 | 146 ft | 16 kts | 204° |
| 2026-05-04 13:33 | 35.76192 | 140.39510 | 146 ft | 21 kts | 204° |
| 2026-05-04 13:33 | 35.76044 | 140.39427 | 146 ft | 24 kts | 204° |
| 2026-05-04 13:34 | 35.75896 | 140.39346 | 146 ft | 22 kts | 204° |
| 2026-05-04 13:34 | 35.75776 | 140.39269 | 146 ft | 16 kts | 226° |
| 2026-05-04 13:34 | 35.75715 | 140.39157 | 146 ft | 14 kts | 237° |
| 2026-05-04 13:34 | 35.75642 | 140.39085 | 146 ft | 12 kts | 204° |
| 2026-05-04 13:35 | 35.75549 | 140.39033 | 146 ft | 16 kts | 204° |
| 2026-05-04 13:35 | 35.75304 | 140.38898 | 146 ft | 20 kts | 204° |
| 2026-05-04 13:35 | 35.75183 | 140.38831 | 146 ft | 17 kts | 204° |
| 2026-05-04 13:36 | 35.75080 | 140.38796 | 146 ft | 13 kts | 165° |
| 2026-05-04 13:36 | 35.75001 | 140.38844 | 146 ft | 11 kts | 148° |
| 2026-05-04 13:36 | 35.74929 | 140.38898 | 146 ft | 14 kts | 149° |
| 2026-05-04 13:36 | 35.74838 | 140.38963 | 146 ft | 14 kts | 149° |
| 2026-05-04 13:37 | 35.74760 | 140.39020 | 146 ft | 12 kts | 149° |
| 2026-05-04 13:37 | 35.74691 | 140.39069 | 146 ft | 10 kts | 149° |
| 2026-05-04 13:37 | 35.74632 | 140.39111 | 146 ft | 8 kts | 149° |
| 2026-05-04 13:37 | 35.74583 | 140.39146 | 146 ft | 7 kts | 149° |
| 2026-05-04 13:38 | 35.74540 | 140.39177 | 146 ft | 7 kts | 149° |
| 2026-05-04 13:38 | 35.74484 | 140.39218 | 146 ft | 9 kts | 150° |
| 2026-05-04 13:38 | 35.74430 | 140.39224 | 146 ft | 5 kts | 216° |
| 2026-05-04 13:38 | 35.74423 | 140.39217 | 146 ft | 0 kts | 227° |
| 2026-05-04 13:39 | 35.74406 | 140.39188 | 146 ft | 7 kts | 238° |
| 2026-05-04 13:39 | 35.74367 | 140.39110 | 146 ft | 8 kts | 238° |
| 2026-05-04 13:39 | 35.74360 | 140.39070 | 146 ft | 4 kts | 290° |
| 2026-05-04 13:40 | 35.74385 | 140.39038 | 146 ft | 6 kts | 325° |
| 2026-05-04 13:40 | 35.74454 | 140.38985 | 146 ft | 27 kts | 328° |
| 2026-05-04 13:40 | 35.74837 | 140.38707 | 146 ft | 97 kts | 330° |
| 2026-05-04 13:40 | 35.75607 | 140.38153 | 146 ft | 159 kts | 330° |
| 2026-05-04 13:41 | 35.76693 | 140.37361 | 342 ft | 194 kts | 329° |
| 2026-05-04 13:41 | 35.77832 | 140.36517 | 1099 ft | 193 kts | 329° |
| 2026-05-04 13:41 | 35.78977 | 140.35687 | 1836 ft | 194 kts | 329° |
| 2026-05-04 13:42 | 35.81263 | 140.34039 | 3233 ft | 189 kts | 329° |
| 2026-05-04 13:42 | 35.82427 | 140.33199 | 3643 ft | 202 kts | 328° |
| 2026-05-04 13:42 | 35.83696 | 140.32281 | 3959 ft | 221 kts | 328° |
| 2026-05-04 13:42 | 35.85081 | 140.31279 | 4378 ft | 237 kts | 328° |
| 2026-05-04 13:43 | 35.86499 | 140.30255 | 5103 ft | 239 kts | 327° |
| 2026-05-04 13:43 | 35.87945 | 140.29210 | 5775 ft | 244 kts | 327° |
| 2026-05-04 13:43 | 35.89424 | 140.28139 | 6349 ft | 252 kts | 326° |
| 2026-05-04 13:43 | 35.90946 | 140.27037 | 6923 ft | 257 kts | 326° |
| 2026-05-04 13:44 | 35.92514 | 140.25903 | 7050 ft | 260 kts | 326° |
| 2026-05-04 13:44 | 35.94084 | 140.24770 | 7066 ft | 259 kts | 326° |
| 2026-05-04 13:44 | 35.95639 | 140.23639 | 7068 ft | 258 kts | 326° |
| 2026-05-04 13:44 | 35.97304 | 140.22815 | 7052 ft | 260 kts | 348° |
| 2026-05-04 13:45 | 35.99120 | 140.23024 | 7048 ft | 273 kts | 16° |
| 2026-05-04 13:45 | 36.00747 | 140.24307 | 7045 ft | 284 kts | 43° |
| 2026-05-04 13:45 | 36.01772 | 140.26408 | 7048 ft | 294 kts | 71° |
| 2026-05-04 13:45 | 36.01970 | 140.28923 | 7036 ft | 298 kts | 98° |
| 2026-05-04 13:46 | 36.01388 | 140.31400 | 7082 ft | 307 kts | 110° |
| 2026-05-04 13:46 | 36.00607 | 140.33870 | 7053 ft | 304 kts | 111° |
| 2026-05-04 13:46 | 35.99828 | 140.36276 | 7053 ft | 305 kts | 111° |
| 2026-05-04 13:46 | 35.98976 | 140.38727 | 7213 ft | 316 kts | 116° |
| 2026-05-04 13:47 | 35.98049 | 140.41106 | 8241 ft | 305 kts | 117° |
| 2026-05-04 13:47 | 35.97130 | 140.43448 | 9117 ft | 301 kts | 118° |
| 2026-05-04 13:47 | 35.96219 | 140.45766 | 9810 ft | 302 kts | 119° |
| 2026-05-04 13:47 | 35.95306 | 140.48085 | 10373 ft | 308 kts | 120° |
| 2026-05-04 13:48 | 35.94337 | 140.50532 | 10596 ft | 327 kts | 120° |
| 2026-05-04 13:48 | 35.93300 | 140.53149 | 10821 ft | 347 kts | 120° |
| 2026-05-04 13:48 | 35.92217 | 140.55881 | 11083 ft | 365 kts | 120° |
| 2026-05-04 13:48 | 35.91080 | 140.58749 | 11342 ft | 384 kts | 120° |
| 2026-05-04 13:49 | 35.89877 | 140.61781 | 11640 ft | 402 kts | 120° |
| 2026-05-04 13:49 | 35.88638 | 140.64908 | 12124 ft | 413 kts | 120° |
| 2026-05-04 13:49 | 35.87358 | 140.68138 | 12796 ft | 418 kts | 121° |
| 2026-05-04 13:49 | 35.86084 | 140.71353 | 13423 ft | 424 kts | 122° |
| 2026-05-04 13:50 | 35.84786 | 140.74622 | 13972 ft | 431 kts | 122° |
| 2026-05-04 13:50 | 35.83448 | 140.77988 | 14535 ft | 438 kts | 123° |
| 2026-05-04 13:50 | 35.82111 | 140.81346 | 15154 ft | 443 kts | 123° |
| 2026-05-04 13:50 | 35.80763 | 140.84737 | 15890 ft | 445 kts | 123° |
| 2026-05-04 13:51 | 35.79382 | 140.88203 | 16484 ft | 449 kts | 124° |
| 2026-05-04 13:51 | 35.78002 | 140.91661 | 17046 ft | 454 kts | 124° |
| 2026-05-04 13:51 | 35.76606 | 140.95155 | 17603 ft | 459 kts | 124° |
| 2026-05-04 13:51 | 35.75200 | 140.98675 | 18207 ft | 461 kts | 124° |
| 2026-05-04 13:52 | 35.72332 | 141.05838 | 19245 ft | 471 kts | 126° |
| 2026-05-04 13:52 | 35.70894 | 141.09421 | 19732 ft | 475 kts | 125° |
| 2026-05-04 13:52 | 35.69403 | 141.13132 | 20202 ft | 481 kts | 126° |
| 2026-05-04 13:53 | 35.67936 | 141.16785 | 20709 ft | 484 kts | 126° |
| 2026-05-04 13:53 | 35.66436 | 141.20512 | 21174 ft | 488 kts | 126° |
| 2026-05-04 13:53 | 35.64924 | 141.24266 | 21632 ft | 492 kts | 127° |
| 2026-05-04 13:54 | 35.61888 | 141.31793 | 22508 ft | 500 kts | 127° |
| 2026-05-04 13:54 | 35.60329 | 141.35646 | 22811 ft | 506 kts | 127° |
| 2026-05-04 13:54 | 35.57180 | 141.43436 | 22866 ft | 509 kts | 127° |
| 2026-05-04 13:55 | 35.55604 | 141.47327 | 22895 ft | 512 kts | 127° |
| 2026-05-04 13:55 | 35.52449 | 141.55115 | 24163 ft | 508 kts | 127° |
| 2026-05-04 13:55 | 35.50887 | 141.58963 | 24767 ft | 507 kts | 127° |
| 2026-05-04 13:56 | 35.49314 | 141.62828 | 25207 ft | 511 kts | 127° |
| 2026-05-04 13:56 | 35.47716 | 141.66748 | 25618 ft | 515 kts | 128° |
| 2026-05-04 13:56 | 35.44922 | 141.74960 | 26408 ft | 540 kts | 115° |
| 2026-05-04 13:57 | 35.44186 | 141.79488 | 26957 ft | 551 kts | 105° |
| 2026-05-04 13:57 | 35.43941 | 141.84196 | 27370 ft | 562 kts | 98° |
| 2026-05-04 13:58 | 35.43955 | 141.98769 | 28430 ft | 574 kts | 98° |
| 2026-05-04 13:58 | 35.44923 | 142.08592 | 29390 ft | 590 kts | 81° |
| 2026-05-04 13:58 | 35.46211 | 142.13342 | 29848 ft | 597 kts | 71° |
| 2026-05-04 13:59 | 35.48045 | 142.17905 | 30299 ft | 601 kts | 61° |
| 2026-05-04 13:59 | 35.50373 | 142.22156 | 30718 ft | 603 kts | 53° |
| 2026-05-04 13:59 | 35.55450 | 142.30287 | 31820 ft | 598 kts | 53° |
| 2026-05-04 14:00 | 35.57972 | 142.34305 | 32305 ft | 597 kts | 53° |
| 2026-05-04 14:00 | 35.63030 | 142.42377 | 32863 ft | 600 kts | 53° |
| 2026-05-04 14:00 | 35.65582 | 142.46457 | 32865 ft | 604 kts | 53° |
| 2026-05-04 14:01 | 35.70697 | 142.54648 | 32862 ft | 599 kts | 53° |
| 2026-05-04 14:02 | 35.78326 | 142.66904 | 32845 ft | 602 kts | 53° |
| 2026-05-04 14:02 | 35.83387 | 142.75055 | 32844 ft | 605 kts | 53° |
| 2026-05-04 14:03 | 35.88495 | 142.83304 | 32843 ft | 606 kts | 53° |
| 2026-05-04 14:03 | 35.93590 | 142.91551 | 32846 ft | 605 kts | 54° |